Time;durP1;ratioP1;P1;durP2;ratioP2;P2;SDS_P1;SDS_P2;PMS_P1;PMS_P2;Temp;Humidity;BMP_temperature;BMP_pressure;BME280_temperature;BME280_humidity;BME280_pressure;Samples;Min_cycle;Max_cycle;Signal;HPM_P1;HPM_P2
2022/08/05 00:01:32;;;;;;;;;;;;;;;18.71;100.00;101421.88;5028650;28;21270;-64
2022/08/05 00:03:57;;;;;;;;;;;;;;;18.76;100.00;101410.53;5028267;28;19909;-64
2022/08/05 00:06:23;;;;;;;;;;;;;;;18.78;100.00;101419.28;5027718;28;19909;-64
2022/08/05 00:08:48;;;;;;;;;;;;;;;18.80;100.00;101417.53;5028211;28;19991;-64
2022/08/05 00:11:14;;;;;;;;;;;;;;;18.81;100.00;101408.81;5028525;28;19963;-64
2022/08/05 00:13:40;;;;;;;;;;;;;;;18.80;100.00;101412.28;5028230;28;19913;-64
2022/08/05 00:16:07;;;;;;;;;;;;;;;18.80;100.00;101418.41;5028565;28;19920;-64
2022/08/05 00:18:32;;;;;;;;;;;;;;;18.84;100.00;101419.31;5027466;28;20385;-64
2022/08/05 00:20:57;;;;;;;;;;;;;;;18.85;100.00;101421.09;5028088;28;19931;-64
2022/08/05 00:23:23;;;;;;;;;;;;;;;18.85;100.00;101423.72;5025422;28;19909;-64
2022/08/05 00:25:48;;;;;;;;;;;;;;;18.88;100.00;101421.09;5028173;28;20616;-64
2022/08/05 00:28:14;;;;;;;;;;;;;;;18.88;100.00;101423.72;5028112;28;19909;-64
2022/08/05 00:30:39;;;;;;;;;;;;;;;18.88;100.00;101420.22;5027751;28;19909;-64
2022/08/05 00:33:04;;;;;;;;;;;;;;;18.85;100.00;101415.84;5026336;28;19909;-64
2022/08/05 00:35:29;;;;;;;;;;;;;;;18.84;100.00;101409.72;5027374;28;20667;-65
2022/08/05 00:37:55;;;;;;;;;;;;;;;18.86;100.00;101420.22;5027832;28;19909;-64
2022/08/05 00:40:21;;;;;;;;;;;;;;;18.87;100.00;101421.97;5027825;28;19916;-65
2022/08/05 00:42:46;;;;;;;;;;;;;;;18.90;100.00;101419.38;5027553;28;20369;-65
2022/08/05 00:45:11;;;;;;;;;;;;;;;18.92;100.00;101422.00;5027426;28;20174;-64
2022/08/05 00:47:37;;;;;;;;;;;;;;;18.94;100.00;101422.91;5027807;28;19956;-65
2022/08/05 00:50:02;;;;;;;;;;;;;;;18.94;100.00;101421.13;5027593;28;19913;-65
2022/08/05 00:52:27;;;;;;;;;;;;;;;18.95;100.00;101422.00;5027750;28;19913;-65
2022/08/05 00:54:52;;;;;;;;;;;;;;;18.93;100.00;101419.38;5027071;28;19913;-64
2022/08/05 00:57:18;;;;;;;;;;;;;;;18.93;100.00;101415.88;5027630;28;20367;-64
2022/08/05 00:59:43;;;;;;;;;;;;;;;18.94;100.00;101421.13;5024968;28;19913;-64
2022/08/05 01:02:08;;;;;;;;;;;;;;;18.92;100.00;101409.78;5027174;28;20003;-65
2022/08/05 01:04:34;;;;;;;;;;;;;;;18.94;100.00;101409.78;5026702;28;19917;-64
2022/08/05 01:06:59;;;;;;;;;;;;;;;18.90;100.00;101416.75;5027292;28;19908;-65
2022/08/05 01:09:24;;;;;;;;;;;;;;;18.91;100.00;101414.97;5027470;28;20387;-64
2022/08/05 01:11:52;;;;;;;;;;;;;;;18.91;100.00;101429.00;5026659;28;20319;-64
2022/08/05 01:14:23;;;;;;;;;;;;;;;18.88;100.00;101426.34;5027250;28;20273;-64
2022/08/05 01:16:55;;;;;;;;;;;;;;;18.87;100.00;101429.84;5026235;28;19920;-64
2022/08/05 01:19:21;;;;;;;;;;;;;;;18.89;100.00;101440.38;5026793;28;19916;-65
2022/08/05 01:21:51;;;;;;;;;;;;;;;18.88;100.00;101450.00;5027310;28;19909;-64
2022/08/05 01:24:31;;;;;;;;;;;;;;;18.91;100.00;101460.50;5026509;28;19944;-64
2022/08/05 01:27:05;;;;;;;;;;;;;;;18.94;100.00;101478.91;5026313;28;19920;-64
2022/08/05 01:29:35;;;;;;;;;;;;;;;18.95;100.00;101506.03;5025226;28;19917;-64
2022/08/05 01:32:02;;;;;;;;;;;;;;;18.93;100.00;101508.66;5026590;28;19912;-64
2022/08/05 01:34:35;;;;;;;;;;;;;;;18.94;100.00;101505.16;5026895;28;19916;-64
2022/08/05 01:37:03;;;;;;;;;;;;;;;18.91;100.00;101507.75;5026667;28;20423;-64
2022/08/05 01:39:30;;;;;;;;;;;;;;;18.88;100.00;101488.47;5027140;28;19916;-65
2022/08/05 01:41:56;;;;;;;;;;;;;;;18.86;100.00;101472.72;5026609;28;19952;-64
2022/08/05 01:44:22;;;;;;;;;;;;;;;18.87;100.00;101477.09;5026694;28;19917;-64
2022/08/05 01:46:47;;;;;;;;;;;;;;;18.86;100.00;101472.72;5026572;28;19917;-64
2022/08/05 01:49:19;;;;;;;;;;;;;;;18.88;100.00;101475.34;5026713;28;20392;-64
2022/08/05 01:51:44;;;;;;;;;;;;;;;18.90;100.00;101484.13;5027041;28;19909;-64
2022/08/05 01:54:11;;;;;;;;;;;;;;;18.91;100.00;101484.13;5026428;28;20426;-64
2022/08/05 01:56:39;;;;;;;;;;;;;;;18.91;100.00;101483.25;5026797;28;20266;-65
2022/08/05 01:59:06;;;;;;;;;;;;;;;18.90;100.00;101484.13;5026628;28;19909;-64
2022/08/05 02:01:32;;;;;;;;;;;;;;;18.88;100.00;101473.63;5026503;28;19913;-64
2022/08/05 02:03:59;;;;;;;;;;;;;;;18.87;100.00;101471.84;5025203;28;19913;-64
2022/08/05 02:06:24;;;;;;;;;;;;;;;18.86;100.00;101456.06;5024478;28;20353;-64
2022/08/05 02:08:49;;;;;;;;;;;;;;;18.86;100.00;101443.84;5026310;28;19912;-64
2022/08/05 02:11:16;;;;;;;;;;;;;;;18.83;100.00;101418.44;5026717;28;19917;-65
2022/08/05 02:13:45;;;;;;;;;;;;;;;18.80;100.00;101407.03;5025897;28;19921;-64
2022/08/05 02:16:17;;;;;;;;;;;;;;;18.79;100.00;101421.03;5027010;28;19913;-64
2022/08/05 02:18:46;;;;;;;;;;;;;;;18.78;100.00;101421.91;5026690;28;20261;-64
2022/08/05 02:21:13;;;;;;;;;;;;;;;18.78;100.00;101440.28;5027073;28;19928;-65
2022/08/05 02:23:40;;;;;;;;;;;;;;;18.79;100.00;101465.66;5026079;28;20143;-65
2022/08/05 02:26:06;;;;;;;;;;;;;;;18.80;100.00;101454.28;5024446;28;19987;-65
2022/08/05 02:28:35;;;;;;;;;;;;;;;18.77;100.00;101417.53;5026513;28;19913;-65
2022/08/05 02:31:04;;;;;;;;;;;;;;;18.73;100.00;101437.63;5029335;28;20335;-64
2022/08/05 02:33:31;;;;;;;;;;;;;;;18.71;100.00;101455.97;5030559;28;20386;-64
2022/08/05 02:35:58;;;;;;;;;;;;;;;18.71;100.00;101470.84;5029515;28;19917;-65
2022/08/05 02:38:24;;;;;;;;;;;;;;;18.71;100.00;101476.09;5029828;28;20356;-65
2022/08/05 02:40:50;;;;;;;;;;;;;;;18.69;100.00;101470.84;5030350;28;19943;-64
2022/08/05 02:43:16;;;;;;;;;;;;;;;18.69;100.00;101472.59;5030290;28;19909;-64
2022/08/05 02:45:42;;;;;;;;;;;;;;;18.69;100.00;101483.09;5029954;28;19913;-64
2022/08/05 02:48:07;;;;;;;;;;;;;;;18.70;100.00;101480.47;5029672;28;19912;-64
2022/08/05 02:50:33;;;;;;;;;;;;;;;18.70;100.00;101464.75;5029939;28;20407;-64
2022/08/05 02:52:59;;;;;;;;;;;;;;;18.69;100.00;101462.97;5029985;28;20582;-64
2022/08/05 02:55:25;;;;;;;;;;;;;;;18.67;100.00;101456.81;5026476;28;19920;-64
2022/08/05 02:57:50;;;;;;;;;;;;;;;18.68;100.00;101447.22;5029261;28;20357;-64
2022/08/05 03:00:16;;;;;;;;;;;;;;;18.63;100.00;101441.03;5029683;28;20365;-64
2022/08/05 03:02:42;;;;;;;;;;;;;;;18.62;100.00;101434.06;5029704;28;19908;-65
2022/08/05 03:05:09;;;;;;;;;;;;;;;18.59;100.00;101433.16;5029903;28;19915;-64
2022/08/05 03:07:35;;;;;;;;;;;;;;;18.52;100.00;101428.72;5030059;28;19949;-64
2022/08/05 03:10:00;;;;;;;;;;;;;;;18.51;100.00;101436.59;5029180;28;19956;-64
2022/08/05 03:12:32;;;;;;;;;;;;;;;18.47;100.00;101426.03;5028537;28;20019;-64
2022/08/05 03:14:58;;;;;;;;;;;;;;;18.46;100.00;101426.91;5028856;28;20280;-64
2022/08/05 03:17:23;;;;;;;;;;;;;;;18.45;100.00;101446.16;5029152;28;19920;-64
2022/08/05 03:19:48;;;;;;;;;;;;;;;18.46;100.00;101447.91;5029480;28;19909;-64
2022/08/05 03:22:14;;;;;;;;;;;;;;;18.46;100.00;101454.91;5029474;28;19916;-65
2022/08/05 03:24:40;;;;;;;;;;;;;;;18.45;100.00;101467.16;5029626;28;19909;-65
2022/08/05 03:27:05;;;;;;;;;;;;;;;18.44;100.00;101478.50;5027467;28;19909;-64
2022/08/05 03:29:30;;;;;;;;;;;;;;;18.45;100.00;101463.63;5028416;28;19912;-64
2022/08/05 03:31:56;;;;;;;;;;;;;;;18.45;100.00;101464.53;5028024;28;19913;-64
2022/08/05 03:34:21;;;;;;;;;;;;;;;18.44;100.00;101465.38;5028142;28;19980;-65
2022/08/05 03:36:46;;;;;;;;;;;;;;;18.42;100.00;101472.34;5028365;28;19917;-64
2022/08/05 03:39:12;;;;;;;;;;;;;;;18.44;100.00;101480.25;5028133;28;19917;-64
2022/08/05 03:41:37;;;;;;;;;;;;;;;18.41;100.00;101481.09;5027850;28;19913;-64
2022/08/05 03:44:02;;;;;;;;;;;;;;;18.42;100.00;101479.38;5029470;28;19912;-64
2022/08/05 03:46:27;;;;;;;;;;;;;;;18.40;100.00;101474.09;5029683;28;20014;-64
2022/08/05 03:48:52;;;;;;;;;;;;;;;18.40;100.00;101474.09;5028749;28;19999;-64
2022/08/05 03:51:26;;;;;;;;;;;;;;;18.38;100.00;101467.97;5029341;28;19913;-64
2022/08/05 03:53:58;;;;;;;;;;;;;;;18.37;100.00;101460.94;5029154;28;20167;-64
2022/08/05 03:56:43;;;;;;;;;;;;;;;18.38;100.00;101451.34;5029055;28;19916;-64
2022/08/05 03:59:12;;;;;;;;;;;;;;;18.35;100.00;101457.41;5028948;28;20410;-64
2022/08/05 04:01:39;;;;;;;;;;;;;;;18.34;100.00;101455.66;5028611;28;19909;-64
2022/08/05 04:04:05;;;;;;;;;;;;;;;18.32;100.00;101453.03;5028889;28;19939;-65
2022/08/05 04:06:32;;;;;;;;;;;;;;;18.32;100.00;101458.28;5029192;28;20000;-64
2022/08/05 04:08:57;;;;;;;;;;;;;;;18.32;100.00;101452.16;5029276;28;20353;-64
2022/08/05 04:11:23;;;;;;;;;;;;;;;18.32;100.00;101457.41;5028476;28;20011;-64
2022/08/05 04:13:48;;;;;;;;;;;;;;;18.30;100.00;101453.88;5029180;28;19917;-64
2022/08/05 04:16:13;;;;;;;;;;;;;;;18.29;100.00;101449.50;5028835;28;19996;-64
2022/08/05 04:18:39;;;;;;;;;;;;;;;18.29;100.00;101447.78;5028438;28;19913;-64
2022/08/05 04:21:05;;;;;;;;;;;;;;;18.28;100.00;101450.34;5027027;28;19913;-65
2022/08/05 04:23:31;;;;;;;;;;;;;;;18.23;100.00;101456.44;5027401;28;19913;-64
2022/08/05 04:25:57;;;;;;;;;;;;;;;18.22;100.00;101462.53;5027139;28;19932;-64
2022/08/05 04:28:22;;;;;;;;;;;;;;;18.22;100.00;101462.53;5026868;28;19909;-64
2022/08/05 04:30:47;;;;;;;;;;;;;;;18.22;100.00;101453.81;5026590;28;20365;-64
2022/08/05 04:33:13;;;;;;;;;;;;;;;18.20;100.00;101453.81;5028909;28;19916;-64
2022/08/05 04:35:38;;;;;;;;;;;;;;;18.19;100.00;101452.03;5028394;28;19916;-64
2022/08/05 04:38:04;;;;;;;;;;;;;;;18.19;100.00;101456.38;5028819;28;20380;-64
2022/08/05 04:40:32;;;;;;;;;;;;;;;18.16;100.00;101459.88;5028653;28;20281;-65
2022/08/05 04:42:57;;;;;;;;;;;;;;;18.17;100.00;101464.25;5028830;28;20385;-64
2022/08/05 04:45:24;;;;;;;;;;;;;;;18.20;100.00;101479.16;5027860;28;20334;-64
2022/08/05 04:47:49;;;;;;;;;;;;;;;18.20;100.00;101474.78;5028729;28;19913;-64
2022/08/05 04:50:14;;;;;;;;;;;;;;;18.22;100.00;101477.44;5028257;28;20385;-64
2022/08/05 04:52:40;;;;;;;;;;;;;;;18.22;100.00;101480.03;5027990;28;19959;-64
2022/08/05 04:55:05;;;;;;;;;;;;;;;18.20;100.00;101479.16;5027667;28;19932;-64
2022/08/05 04:57:30;;;;;;;;;;;;;;;18.19;100.00;101467.75;5027909;28;19970;-64
2022/08/05 04:59:56;;;;;;;;;;;;;;;18.18;100.00;101460.78;5028466;28;19940;-64
2022/08/05 05:02:21;;;;;;;;;;;;;;;18.17;100.00;101469.50;5028535;28;20356;-64
2022/08/05 05:04:46;;;;;;;;;;;;;;;18.19;100.00;101473.00;5028528;28;19993;-64
2022/08/05 05:07:11;;;;;;;;;;;;;;;18.21;100.00;101475.66;5028127;28;19917;-64
2022/08/05 05:09:37;;;;;;;;;;;;;;;18.22;100.00;101473.03;5028077;28;19962;-64
2022/08/05 05:12:02;;;;;;;;;;;;;;;18.24;100.00;101476.56;5027530;28;19909;-64
2022/08/05 05:14:27;;;;;;;;;;;;;;;18.27;100.00;101475.72;5028017;28;20027;-64
2022/08/05 05:16:52;;;;;;;;;;;;;;;18.29;100.00;101475.75;5027821;28;19960;-64
2022/08/05 05:19:17;;;;;;;;;;;;;;;18.29;100.00;101479.25;5026958;28;19916;-64
2022/08/05 05:21:43;;;;;;;;;;;;;;;18.33;100.00;101482.78;5027188;28;19905;-65
2022/08/05 05:24:08;;;;;;;;;;;;;;;18.37;100.00;101479.31;5027811;28;19909;-64
2022/08/05 05:26:33;;;;;;;;;;;;;;;18.38;100.00;101480.19;5027524;28;19920;-64
2022/08/05 05:28:58;;;;;;;;;;;;;;;18.40;100.00;101487.22;5027995;28;19908;-64
2022/08/05 05:31:23;;;;;;;;;;;;;;;18.37;100.00;101487.16;5027659;28;19908;-64
2022/08/05 05:33:49;;;;;;;;;;;;;;;18.39;100.00;101485.44;5026956;28;19959;-64
2022/08/05 05:36:14;;;;;;;;;;;;;;;18.38;100.00;101483.69;5027374;28;19920;-64
2022/08/05 05:38:39;;;;;;;;;;;;;;;18.39;100.00;101495.94;5027454;28;19952;-64
2022/08/05 05:41:04;;;;;;;;;;;;;;;18.38;100.00;101498.56;5027264;28;19909;-64
2022/08/05 05:43:29;;;;;;;;;;;;;;;18.38;100.00;101503.81;5027657;28;20452;-64
2022/08/05 05:45:55;;;;;;;;;;;;;;;18.36;100.00;101511.66;5027802;28;20395;-64
2022/08/05 05:48:20;;;;;;;;;;;;;;;18.37;100.00;101508.16;5027824;28;19916;-64
2022/08/05 05:50:45;;;;;;;;;;;;;;;18.35;100.00;101509.88;5027541;28;19915;-64
2022/08/05 05:53:12;;;;;;;;;;;;;;;18.34;100.00;101511.66;5027488;28;19919;-65
2022/08/05 05:55:37;;;;;;;;;;;;;;;18.35;100.00;101515.13;5026995;28;19916;-65
2022/08/05 05:58:02;;;;;;;;;;;;;;;18.37;100.00;101523.91;5027655;28;19912;-64
2022/08/05 06:00:27;;;;;;;;;;;;;;;18.37;100.00;101529.16;5027396;28;19908;-64
2022/08/05 06:02:53;;;;;;;;;;;;;;;18.37;100.00;101523.91;5027255;28;19909;-64
2022/08/05 06:05:19;;;;;;;;;;;;;;;18.38;100.00;101525.69;5029953;28;19995;-64
2022/08/05 06:07:44;;;;;;;;;;;;;;;18.38;100.00;101520.44;5030944;28;20365;-64
2022/08/05 06:10:10;;;;;;;;;;;;;;;18.36;100.00;101522.16;5031871;28;19956;-64
2022/08/05 06:12:36;;;;;;;;;;;;;;;18.35;100.00;101526.50;5031342;28;19913;-64
2022/08/05 06:15:02;;;;;;;;;;;;;;;18.38;100.00;101524.78;5031029;28;20147;-64
2022/08/05 06:17:27;;;;;;;;;;;;;;;18.40;100.00;101520.44;5031339;28;19913;-64
2022/08/05 06:19:52;;;;;;;;;;;;;;;18.41;100.00;101525.69;5031324;28;20164;-64
2022/08/05 06:22:22;;;;;;;;;;;;;;;18.41;100.00;101517.81;5031176;28;19964;-64
2022/08/05 06:24:47;;;;;;;;;;;;;;;18.42;100.00;101526.59;5030822;28;20281;-64
2022/08/05 06:27:12;;;;;;;;;;;;;;;18.39;100.00;101519.56;5031366;28;19915;-64
2022/08/05 06:29:37;;;;;;;;;;;;;;;18.42;100.00;101527.44;5031275;28;19967;-65
2022/08/05 06:32:03;;;;;;;;;;;;;;;18.47;100.00;101530.13;5030673;28;19952;-64
2022/08/05 06:34:28;;;;;;;;;;;;;;;18.50;100.00;101524.91;5030590;28;19909;-64
2022/08/05 06:36:53;;;;;;;;;;;;;;;18.53;100.00;101521.44;5030886;28;20392;-64
2022/08/05 06:39:18;;;;;;;;;;;;;;;18.57;100.00;101536.34;5030981;28;20247;-64
2022/08/05 06:41:43;;;;;;;;;;;;;;;18.60;100.00;101539.88;5030505;28;20241;-64
2022/08/05 06:44:09;;;;;;;;;;;;;;;18.65;100.00;101544.28;5030262;28;20348;-64
2022/08/05 06:46:34;;;;;;;;;;;;;;;18.72;100.00;101544.38;5030808;28;19913;-64
2022/08/05 06:48:59;;;;;;;;;;;;;;;18.82;100.00;101544.44;5030528;28;19912;-64
2022/08/05 06:51:24;;;;;;;;;;;;;;;18.96;100.00;101549.78;5030557;28;20011;-64
2022/08/05 06:53:49;;;;;;;;;;;;;;;19.15;100.00;101548.25;5030208;28;19909;-64
2022/08/05 06:56:15;;;;;;;;;;;;;;;19.31;100.00;101567.63;5030514;28;19917;-64
2022/08/05 06:58:40;;;;;;;;;;;;;;;19.42;100.00;101559.81;5030635;28;19913;-64
2022/08/05 07:01:05;;;;;;;;;;;;;;;19.47;100.00;101566.84;5029422;28;19909;-64
2022/08/05 07:03:31;;;;;;;;;;;;;;;19.48;100.00;101573.88;5029269;28;20354;-64
2022/08/05 07:05:56;;;;;;;;;;;;;;;19.43;100.00;101579.97;5027698;28;20349;-64
2022/08/05 07:08:22;;;;;;;;;;;;;;;19.41;100.00;101583.47;5028602;28;19975;-65
2022/08/05 07:10:47;;;;;;;;;;;;;;;19.37;100.00;101579.94;5030442;28;20427;-64
2022/08/05 07:18:41;;;;;;;;;;;;;;;19.41;100.00;101581.69;5029121;28;19920;-64
2022/08/05 07:21:06;;;;;;;;;;;;;;;19.41;100.00;101584.31;5029352;28;19913;-63
2022/08/05 07:23:32;;;;;;;;;;;;;;;19.46;100.00;101591.38;5028890;28;20015;-64
2022/08/05 07:25:57;;;;;;;;;;;;;;;19.53;100.00;101585.28;5029727;28;19916;-64
2022/08/05 07:28:23;;;;;;;;;;;;;;;19.60;100.00;101589.72;5029081;28;20305;-63
2022/08/05 07:30:49;;;;;;;;;;;;;;;19.72;100.00;101588.00;5029537;28;19959;-64
2022/08/05 07:33:14;;;;;;;;;;;;;;;19.83;100.00;101596.84;5029574;28;20281;-64
2022/08/05 07:35:39;;;;;;;;;;;;;;;19.95;100.00;101605.69;5029614;28;19913;-64
2022/08/05 07:38:04;;;;;;;;;;;;;;;20.00;100.00;101606.56;5029861;28;19917;-63
2022/08/05 07:40:30;;;;;;;;;;;;;;;20.05;100.00;101607.50;5029611;28;20000;-64
2022/08/05 07:42:55;;;;;;;;;;;;;;;20.08;100.00;101609.25;5027472;28;19916;-64
2022/08/05 07:45:20;;;;;;;;;;;;;;;20.07;100.00;101612.78;5023744;28;20007;-64
2022/08/05 07:47:45;;;;;;;;;;;;;;;20.10;99.61;101610.13;5021077;28;20436;-64
2022/08/05 07:50:11;;;;;;;;;;;;;;;20.15;96.35;101614.56;5027297;28;20369;-64
2022/08/05 07:52:40;;;;;;;;;;;;;;;20.12;93.72;101617.19;5021101;28;19919;-64
2022/08/05 07:55:05;;;;;;;;;;;;;;;20.23;94.50;101621.59;5029257;28;19909;-64
2022/08/05 07:57:30;;;;;;;;;;;;;;;20.37;94.77;101621.66;5028303;28;19924;-63
2022/08/05 07:59:56;;;;;;;;;;;;;;;20.52;94.80;101623.47;5028874;28;19912;-64
2022/08/05 08:02:25;;;;;;;;;;;;;;;20.77;92.85;101618.25;5028529;28;19920;-64
2022/08/05 08:04:50;;;;;;;;;;;;;;;20.93;90.63;101619.13;5028377;28;19913;-65
2022/08/05 08:07:16;;;;;;;;;;;;;;;21.12;87.22;101611.25;5025888;28;20199;-65
2022/08/05 08:09:42;;;;;;;;;;;;;;;21.31;84.75;101616.53;5026129;28;20194;-65
2022/08/05 08:12:07;;;;;;;;;;;;;;;21.39;82.66;101627.09;5023430;28;19916;-65
2022/08/05 08:14:32;;;;;;;;;;;;;;;21.54;82.08;101632.34;5026884;28;20304;-65
2022/08/05 08:16:58;;;;;;;;;;;;;;;21.50;79.48;101629.72;5023735;28;19913;-65
2022/08/05 08:19:23;;;;;;;;;;;;;;;21.50;81.90;101627.06;5026913;28;19970;-65
2022/08/05 08:21:48;;;;;;;;;;;;;;;21.73;79.68;101632.28;5023074;28;19924;-65
2022/08/05 08:24:13;;;;;;;;;;;;;;;21.93;78.79;101640.19;5020436;28;19913;-64
2022/08/05 08:26:39;;;;;;;;;;;;;;;22.07;78.77;101648.03;5024202;28;19909;-65
2022/08/05 08:29:04;;;;;;;;;;;;;;;22.11;78.83;101645.41;5021792;28;20105;-65
2022/08/05 08:31:29;;;;;;;;;;;;;;;22.05;77.86;101648.94;5028051;28;19988;-65
2022/08/05 08:33:54;;;;;;;;;;;;;;;21.97;77.65;101650.72;5027735;28;19909;-65
2022/08/05 08:36:20;;;;;;;;;;;;;;;21.86;77.42;101659.53;5027168;28;19913;-65
2022/08/05 08:38:45;;;;;;;;;;;;;;;21.76;77.24;101653.41;5026198;28;20447;-65
2022/08/05 08:41:12;;;;;;;;;;;;;;;21.63;77.61;101663.06;5024471;28;19913;-65
2022/08/05 08:43:39;;;;;;;;;;;;;;;21.57;78.31;101663.97;5028285;28;20315;-65
2022/08/05 08:46:04;;;;;;;;;;;;;;;21.59;77.92;101666.59;5028101;28;19912;-65
2022/08/05 08:48:31;;;;;;;;;;;;;;;21.65;79.52;101670.97;5028172;28;19909;-65
2022/08/05 08:50:57;;;;;;;;;;;;;;;21.66;78.14;101678.03;5025880;28;19923;-65
2022/08/05 08:53:23;;;;;;;;;;;;;;;21.72;78.43;101678.00;5028040;28;19943;-64
2022/08/05 08:55:48;;;;;;;;;;;;;;;21.82;77.80;101685.03;5028135;28;19920;-65
2022/08/05 08:58:14;;;;;;;;;;;;;;;21.89;77.13;101691.19;5029605;28;19916;-65
2022/08/05 09:00:41;;;;;;;;;;;;;;;21.97;77.43;101691.16;5029315;28;19996;-65
2022/08/05 09:03:06;;;;;;;;;;;;;;;22.12;76.53;101692.91;5028885;28;19913;-65
2022/08/05 09:05:31;;;;;;;;;;;;;;;22.36;73.54;101690.19;5028195;28;19974;-65
2022/08/05 09:07:57;;;;;;;;;;;;;;;22.49;74.62;101699.78;5027277;28;19920;-65
2022/08/05 09:10:22;;;;;;;;;;;;;;;22.62;73.55;101702.38;5025748;28;19917;-65
2022/08/05 09:12:47;;;;;;;;;;;;;;;22.65;71.60;101702.38;5027307;28;19920;-64
2022/08/05 09:15:13;;;;;;;;;;;;;;;22.72;72.66;101698.81;5027226;28;19917;-64
2022/08/05 09:17:39;;;;;;;;;;;;;;;22.71;71.58;101707.66;5026095;28;19917;-64
2022/08/05 09:20:04;;;;;;;;;;;;;;;22.73;72.39;101710.28;5026944;28;19916;-64
2022/08/05 09:22:50;;;;;;;;;;;;;;;22.72;72.70;101706.75;5026814;28;19966;-64
2022/08/05 09:25:17;;;;;;;;;;;;;;;22.71;72.64;101710.28;5027689;28;20400;-65
2022/08/05 09:27:42;;;;;;;;;;;;;;;22.75;73.17;101714.69;5026849;28;19974;-64
2022/08/05 09:30:09;;;;;;;;;;;;;;;22.88;73.22;101714.63;5023861;28;19963;-64
2022/08/05 09:32:36;;;;;;;;;;;;;;;22.87;72.49;101712.84;5027337;28;20269;-64
2022/08/05 09:35:07;;;;;;;;;;;;;;;22.68;72.35;101718.25;5026918;28;19909;-64
2022/08/05 09:37:33;;;;;;;;;;;;;;;22.52;73.03;101720.91;5027103;28;19999;-64
2022/08/05 09:39:58;;;;;;;;;;;;;;;22.37;74.50;101729.78;5026375;28;20684;-65
2022/08/05 09:42:24;;;;;;;;;;;;;;;22.20;75.22;101732.44;5025613;28;19913;-64
2022/08/05 09:44:51;;;;;;;;;;;;;;;22.15;76.04;101728.94;5025820;28;19913;-64
2022/08/05 09:47:18;;;;;;;;;;;;;;;22.34;76.44;101737.72;5025264;28;19909;-64
2022/08/05 09:49:50;;;;;;;;;;;;;;;22.71;76.87;101736.69;5027441;28;19924;-64
2022/08/05 09:52:25;;;;;;;;;;;;;;;23.19;74.03;101739.97;5026644;28;19924;-64
2022/08/05 09:55:11;;;;;;;;;;;;;;;23.64;71.37;101739.63;5024659;28;19909;-64
2022/08/05 09:57:39;;;;;;;;;;;;;;;24.03;66.69;101738.41;5027067;28;19913;-64
2022/08/05 10:00:14;;;;;;;;;;;;;;;24.31;64.83;101736.34;5028499;28;19909;-64
2022/08/05 10:02:47;;;;;;;;;;;;;;;24.64;64.22;101735.94;5029022;28;19909;-65
2022/08/05 10:05:19;;;;;;;;;;;;;;;24.88;62.48;101733.84;5028470;28;19917;-64
2022/08/05 10:07:44;;;;;;;;;;;;;;;24.97;63.61;101746.13;5028147;28;19912;-64
2022/08/05 10:10:10;;;;;;;;;;;;;;;24.78;61.79;101742.81;5028084;28;19917;-64
2022/08/05 10:12:42;;;;;;;;;;;;;;;24.70;63.21;101748.22;5027827;28;19992;-64
2022/08/05 10:15:15;;;;;;;;;;;;;;;24.44;59.98;101747.69;5028314;28;19991;-64
2022/08/05 10:17:40;;;;;;;;;;;;;;;24.32;62.09;101755.75;5028487;28;19967;-64
2022/08/05 10:20:06;;;;;;;;;;;;;;;24.25;61.31;101754.06;5028627;28;19913;-64
2022/08/05 10:22:32;;;;;;;;;;;;;;;24.04;60.16;101750.72;5027802;28;20443;-64
2022/08/05 10:24:57;;;;;;;;;;;;;;;24.09;59.21;101751.53;5027224;28;19954;-64
2022/08/05 10:27:23;;;;;;;;;;;;;;;24.36;60.36;101746.00;5025964;28;20000;-65
2022/08/05 10:29:48;;;;;;;;;;;;;;;24.73;59.17;101753.50;5025311;28;19909;-64
2022/08/05 10:32:13;;;;;;;;;;;;;;;25.07;54.04;101752.16;5025472;28;20007;-65
2022/08/05 10:34:38;;;;;;;;;;;;;;;25.25;51.72;101760.75;5024048;28;20044;-64
2022/08/05 10:37:04;;;;;;;;;;;;;;;25.41;48.38;101754.31;5025192;28;19916;-64
2022/08/05 10:39:32;;;;;;;;;;;;;;;25.55;49.94;101753.19;5025562;28;19912;-64
2022/08/05 10:42:08;;;;;;;;;;;;;;;25.80;50.50;101751.94;5024633;28;19913;-64
2022/08/05 10:44:34;;;;;;;;;;;;;;;25.88;45.78;101764.16;5025482;28;20324;-64
2022/08/05 10:47:08;;;;;;;;;;;;;;;25.76;45.18;101759.94;5026333;28;19909;-64
2022/08/05 10:49:33;;;;;;;;;;;;;;;25.50;44.77;101760.34;5015788;28;19909;-64
2022/08/05 10:52:01;;;;;;;;;;;;;;;25.30;45.46;101761.53;5028570;28;19931;-65
2022/08/05 10:54:46;;;;;;;;;;;;;;;25.01;47.66;101770.81;5030654;28;20350;-64
2022/08/05 10:57:23;;;;;;;;;;;;;;;24.79;47.86;101776.38;5029661;28;19923;-64
2022/08/05 11:00:05;;;;;;;;;;;;;;;24.58;45.99;101773.09;5029985;28;20305;-65
2022/08/05 11:02:30;;;;;;;;;;;;;;;24.46;48.41;101785.63;5029987;28;19924;-64
2022/08/05 11:04:55;;;;;;;;;;;;;;;24.46;46.94;101784.72;5029823;28;19913;-64
2022/08/05 11:07:21;;;;;;;;;;;;;;;24.52;46.33;101786.44;5029995;28;19913;-64
2022/08/05 11:09:47;;;;;;;;;;;;;;;24.49;46.64;101779.38;5030185;28;19913;-64
2022/08/05 11:12:31;;;;;;;;;;;;;;;24.61;46.89;101783.66;5028946;28;19917;-64
2022/08/05 11:15:06;;;;;;;;;;;;;;;24.62;45.13;101792.47;5029739;28;19928;-64
2022/08/05 11:17:37;;;;;;;;;;;;;;;24.58;45.34;101786.34;5027913;28;19924;-64
2022/08/05 11:20:02;;;;;;;;;;;;;;;24.51;45.45;101790.84;5029740;28;19920;-64
2022/08/05 11:22:37;;;;;;;;;;;;;;;24.40;45.18;101796.25;5029862;28;19909;-64
2022/08/05 11:25:20;;;;;;;;;;;;;;;24.37;44.15;101791.00;5029962;28;19971;-64
2022/08/05 11:27:46;;;;;;;;;;;;;;;24.31;46.25;101796.34;5029802;28;19909;-64
2022/08/05 11:30:11;;;;;;;;;;;;;;;24.31;45.70;101797.25;5029043;28;20420;-65
2022/08/05 11:32:36;;;;;;;;;;;;;;;24.26;44.84;101801.72;5029736;28;19916;-64
2022/08/05 11:35:01;;;;;;;;;;;;;;;24.37;46.04;101804.25;5028396;28;19923;-64
2022/08/05 11:37:38;;;;;;;;;;;;;;;24.38;44.85;101797.16;5027954;28;20007;-64
2022/08/05 11:40:04;;;;;;;;;;;;;;;24.34;45.55;101801.59;5028569;28;20288;-64
2022/08/05 11:42:31;;;;;;;;;;;;;;;24.16;44.22;101803.53;5026759;28;19968;-64
2022/08/05 11:45:00;;;;;;;;;;;;;;;24.19;47.32;101803.56;5029209;28;19949;-64
2022/08/05 11:47:25;;;;;;;;;;;;;;;24.42;48.11;101802.44;5028188;28;19975;-64
2022/08/05 11:49:55;;;;;;;;;;;;;;;24.77;49.50;101820.56;5028570;28;20199;-64
2022/08/05 11:52:24;;;;;;;;;;;;;;;24.99;48.22;101815.03;5028071;28;20424;-64
2022/08/05 11:54:49;;;;;;;;;;;;;;;24.99;46.34;101818.53;5028384;28;19947;-64
2022/08/05 11:57:15;;;;;;;;;;;;;;;24.81;45.06;101823.16;5029237;28;19917;-64
2022/08/05 11:59:40;;;;;;;;;;;;;;;24.64;45.83;101826.03;5029385;28;19992;-65
2022/08/05 12:02:07;;;;;;;;;;;;;;;24.52;46.98;101827.03;5028818;28;19909;-64
2022/08/05 12:04:38;;;;;;;;;;;;;;;24.44;47.57;101835.06;5027789;28;19917;-64
2022/08/05 12:07:04;;;;;;;;;;;;;;;24.31;47.79;101839.59;5027567;28;20282;-64
2022/08/05 12:09:35;;;;;;;;;;;;;;;24.19;49.20;101840.63;5026794;28;19959;-64
2022/08/05 12:12:00;;;;;;;;;;;;;;;24.10;49.36;101856.53;5027539;28;20387;-64
2022/08/05 12:14:34;;;;;;;;;;;;;;;24.04;48.51;101853.94;5027362;28;19916;-65
2022/08/05 12:17:05;;;;;;;;;;;;;;;24.09;49.68;101862.72;5020770;28;20047;-64
2022/08/05 12:19:39;;;;;;;;;;;;;;;24.13;49.51;101867.09;5022741;28;20309;-64
2022/08/05 12:22:04;;;;;;;;;;;;;;;24.20;49.26;101868.84;5026117;28;19941;-65
2022/08/05 12:24:30;;;;;;;;;;;;;;;24.10;47.97;101875.06;5028099;28;20014;-64
2022/08/05 12:26:55;;;;;;;;;;;;;;;24.18;49.27;101875.91;5028347;28;20379;-65
2022/08/05 12:29:22;;;;;;;;;;;;;;;24.44;48.74;101877.44;5026734;28;20417;-64
2022/08/05 12:31:49;;;;;;;;;;;;;;;24.74;47.02;101878.88;5027226;28;19920;-65
2022/08/05 12:34:15;;;;;;;;;;;;;;;24.96;46.04;101882.19;5026494;28;20382;-65